createdAt,value
2023-02-09T00:00:19.543Z,11.32
2023-02-09T00:01:30.408Z,10.18
2023-02-09T00:02:33.817Z,10.43
2023-02-09T00:03:36.409Z,11.45
2023-02-09T00:04:38.274Z,12.27
2023-02-09T00:05:40.158Z,10.07
2023-02-09T00:06:42.108Z,12.23
2023-02-09T00:07:43.946Z,11.93
2023-02-09T00:08:46.162Z,10.60
2023-02-09T00:09:48.194Z,10.65
2023-02-09T00:10:50.030Z,12.82
2023-02-09T00:12:10.593Z,14.15
2023-02-09T00:13:24.766Z,11.05
2023-02-09T00:14:27.336Z,10.98
2023-02-09T00:15:29.168Z,10.05
2023-02-09T00:16:31.232Z,9.90
2023-02-09T00:17:37.420Z,11.05
2023-02-09T00:18:39.638Z,11.30
2023-02-09T00:19:41.524Z,11.65
2023-02-09T00:20:43.858Z,11.77
2023-02-09T00:21:46.390Z,12.32
2023-02-09T00:22:48.336Z,14.10
2023-02-09T00:23:50.240Z,9.65
2023-02-09T00:24:52.424Z,10.00
2023-02-09T00:25:54.333Z,12.93
2023-02-09T00:26:56.352Z,10.95
2023-02-09T00:27:58.289Z,11.38
2023-02-09T00:29:03.672Z,9.55
2023-02-09T00:30:11.771Z,11.35
2023-02-09T00:31:15.694Z,8.68
2023-02-09T00:32:27.000Z,10.82
2023-02-09T00:33:34.657Z,11.93
2023-02-09T00:34:39.719Z,10.93
2023-02-09T00:35:46.179Z,11.23
2023-02-09T00:36:54.414Z,12.35
2023-02-09T00:38:11.110Z,12.27
2023-02-09T00:39:26.152Z,9.48
2023-02-09T00:40:32.904Z,14.13
2023-02-09T00:41:55.720Z,14.55
2023-02-09T00:43:00.598Z,10.55
2023-02-09T00:44:22.870Z,11.70
2023-02-09T00:45:24.876Z,8.07
2023-02-09T00:46:26.723Z,12.63
2023-02-09T00:47:28.539Z,10.43
2023-02-09T00:48:30.413Z,9.48
2023-02-09T00:49:32.915Z,10.25
2023-02-09T00:50:34.884Z,11.68
2023-02-09T00:51:36.730Z,13.45
2023-02-09T00:52:38.571Z,7.90
2023-02-09T00:53:40.384Z,11.50
2023-02-09T00:54:42.325Z,10.43
2023-02-09T00:55:44.228Z,15.93
2023-02-09T00:56:46.589Z,11.38
2023-02-09T00:57:48.472Z,11.18
2023-02-09T00:58:50.342Z,10.50
2023-02-09T00:59:52.218Z,11.60
2023-02-09T01:00:54.083Z,12.98
2023-02-09T01:01:56.092Z,10.95
2023-02-09T01:02:58.488Z,11.00
2023-02-09T01:04:00.596Z,10.85
2023-02-09T01:05:02.841Z,10.75
2023-02-09T01:06:06.529Z,15.80
2023-02-09T01:07:08.637Z,11.90
2023-02-09T01:08:10.800Z,10.77
2023-02-09T01:09:12.643Z,10.65
2023-02-09T01:10:14.776Z,13.65
2023-02-09T01:11:17.016Z,12.90
2023-02-09T01:12:19.096Z,10.27
2023-02-09T01:13:21.019Z,12.95
2023-02-09T01:14:22.961Z,10.27
2023-02-09T01:15:24.844Z,12.10
2023-02-09T01:16:29.052Z,11.70
2023-02-09T01:17:31.045Z,13.95
2023-02-09T01:18:33.424Z,11.82
2023-02-09T01:19:36.145Z,12.98
2023-02-09T01:20:38.121Z,12.23
2023-02-09T01:21:40.640Z,9.85
2023-02-09T01:22:42.915Z,10.82
2023-02-09T01:23:46.392Z,9.68
2023-02-09T01:24:48.364Z,9.50
2023-02-09T01:25:50.192Z,12.40
2023-02-09T01:26:52.069Z,11.98
2023-02-09T01:27:53.906Z,11.02
2023-02-09T01:28:55.976Z,12.60
2023-02-09T01:29:58.186Z,11.32
2023-02-09T01:31:00.200Z,12.90
2023-02-09T01:32:02.609Z,14.20
2023-02-09T01:33:04.706Z,9.77
2023-02-09T01:34:06.598Z,12.40
2023-02-09T01:35:08.955Z,12.65
2023-02-09T01:36:11.162Z,10.85
2023-02-09T01:37:12.975Z,12.10
2023-02-09T01:38:14.934Z,11.88
2023-02-09T01:39:16.994Z,11.77
2023-02-09T01:40:18.852Z,9.35
2023-02-09T01:41:20.937Z,10.77
2023-02-09T01:42:22.948Z,10.27
2023-02-09T01:43:24.829Z,11.13
2023-02-09T01:44:26.696Z,10.45
2023-02-09T01:45:50.152Z,14.70
2023-02-09T01:46:52.009Z,12.30
2023-02-09T01:48:00.509Z,11.85
2023-02-09T01:49:16.456Z,11.82
2023-02-09T01:50:22.332Z,10.77
2023-02-09T01:51:49.596Z,12.32
2023-02-09T01:52:55.421Z,10.35
2023-02-09T01:54:01.024Z,10.07
2023-02-09T01:55:11.064Z,13.60
2023-02-09T01:57:51.254Z,12.75
2023-02-09T01:58:53.477Z,11.63
2023-02-09T02:00:12.159Z,11.90
2023-02-09T02:01:25.277Z,12.50
2023-02-09T02:02:31.965Z,13.85
2023-02-09T02:03:38.454Z,15.23
2023-02-09T02:04:45.231Z,12.63
2023-02-09T02:05:52.456Z,14.00
2023-02-09T02:07:14.385Z,10.88
2023-02-09T02:08:35.437Z,8.82
2023-02-09T02:09:37.741Z,11.02
2023-02-09T02:10:39.579Z,10.20
2023-02-09T02:11:44.433Z,11.98
2023-02-09T02:12:46.935Z,11.50
2023-02-09T02:14:00.070Z,12.07
2023-02-09T02:15:08.570Z,11.18
2023-02-09T02:16:52.855Z,15.43
2023-02-09T02:18:52.414Z,12.10
2023-02-09T02:22:33.142Z,11.55
2023-02-09T02:23:43.903Z,12.82
2023-02-09T02:25:16.375Z,9.73
2023-02-09T02:26:41.462Z,12.48
2023-02-09T02:28:26.021Z,12.93
2023-02-09T02:30:03.346Z,10.90
2023-02-09T02:31:36.991Z,10.23
2023-02-09T02:33:21.796Z,7.03
2023-02-09T02:34:46.060Z,9.40
2023-02-09T02:36:10.235Z,11.20
2023-02-09T02:37:48.957Z,10.70
2023-02-09T02:39:13.946Z,7.82
2023-02-09T02:40:45.037Z,10.35
2023-02-09T02:42:22.444Z,8.70
2023-02-09T02:44:03.098Z,10.18
2023-02-09T02:45:08.099Z,13.93
2023-02-09T02:46:36.086Z,10.98
2023-02-09T02:47:42.585Z,9.38
2023-02-09T02:49:18.159Z,13.07
2023-02-09T02:50:58.465Z,14.15
2023-02-09T02:52:22.338Z,13.70
2023-02-09T02:53:31.476Z,14.05
2023-02-09T02:54:48.138Z,13.60
2023-02-09T02:56:03.521Z,15.25
2023-02-09T02:57:21.959Z,14.90
2023-02-09T02:58:26.267Z,9.80
2023-02-09T03:00:47.916Z,12.63
2023-02-09T03:01:56.842Z,14.20
2023-02-09T03:03:20.046Z,10.95
2023-02-09T03:04:25.774Z,14.25
2023-02-09T03:05:40.369Z,9.73
2023-02-09T03:06:44.845Z,11.85
2023-02-09T03:07:54.210Z,12.77
2023-02-09T03:08:57.569Z,8.02
2023-02-09T03:10:01.467Z,10.57
2023-02-09T03:11:05.589Z,6.30
2023-02-09T03:12:34.575Z,12.80
2023-02-09T03:13:54.770Z,9.00
2023-02-09T03:15:38.145Z,8.55
2023-02-09T03:17:17.174Z,9.35
2023-02-09T03:18:28.092Z,10.00
2023-02-09T03:19:46.167Z,11.38
2023-02-09T03:21:09.062Z,10.32
2023-02-09T03:22:37.099Z,11.43
2023-02-09T03:23:54.606Z,9.52
2023-02-09T03:25:14.567Z,10.38
2023-02-09T03:26:23.602Z,10.07
2023-02-09T03:27:29.074Z,12.18
2023-02-09T03:28:35.296Z,12.35
2023-02-09T03:29:38.477Z,10.45
2023-02-09T03:30:42.740Z,15.75
2023-02-09T03:32:47.962Z,11.93
2023-02-09T03:33:50.678Z,11.73
2023-02-09T03:34:54.352Z,9.85
2023-02-09T03:35:59.325Z,11.05
2023-02-09T03:37:01.230Z,10.50
2023-02-09T03:38:06.847Z,11.75
2023-02-09T03:39:09.351Z,14.45
2023-02-09T03:40:11.734Z,11.57
2023-02-09T03:41:13.545Z,13.68
2023-02-09T03:42:15.522Z,14.65
2023-02-09T03:43:17.750Z,12.23
2023-02-09T03:44:28.945Z,13.88
2023-02-09T03:45:30.843Z,14.00
2023-02-09T03:46:33.787Z,11.32
2023-02-09T03:47:36.091Z,13.77
2023-02-09T03:48:38.321Z,12.10
2023-02-09T03:49:41.888Z,17.17
2023-02-09T03:50:44.055Z,12.77
2023-02-09T03:51:46.331Z,16.15
2023-02-09T03:52:48.256Z,15.82
2023-02-09T03:53:50.788Z,11.43
2023-02-09T03:54:52.758Z,11.40
2023-02-09T03:55:54.623Z,11.05
2023-02-09T03:56:58.108Z,12.40
2023-02-09T03:58:00.889Z,12.55
2023-02-09T03:59:02.813Z,10.70
2023-02-09T04:00:05.958Z,16.70
2023-02-09T04:01:10.712Z,12.85
2023-02-09T04:02:13.319Z,11.45
2023-02-09T04:03:15.194Z,12.07
2023-02-09T04:04:17.117Z,16.90
2023-02-09T04:05:19.065Z,9.98
2023-02-09T04:06:21.416Z,12.88
2023-02-09T04:07:23.313Z,11.25
2023-02-09T04:08:25.236Z,13.00
2023-02-09T04:09:27.925Z,12.13
2023-02-09T04:10:29.893Z,12.77
2023-02-09T04:11:32.619Z,11.13
2023-02-09T04:12:34.508Z,12.45
2023-02-09T04:13:36.607Z,9.90
2023-02-09T04:14:38.413Z,16.80
2023-02-09T04:15:40.264Z,9.40
2023-02-09T04:16:42.171Z,10.82
2023-02-09T04:17:44.277Z,10.70
2023-02-09T04:18:47.071Z,11.35
2023-02-09T04:19:49.023Z,11.50
2023-02-09T04:20:50.846Z,10.30
2023-02-09T04:21:52.838Z,12.65
2023-02-09T04:22:55.816Z,9.48
2023-02-09T04:23:57.927Z,11.50
2023-02-09T04:24:59.730Z,10.85
2023-02-09T04:26:01.534Z,13.48
2023-02-09T04:27:03.503Z,11.02
2023-02-09T04:28:06.062Z,12.35
2023-02-09T04:29:08.039Z,10.43
2023-02-09T04:30:10.466Z,11.60
2023-02-09T04:31:13.264Z,12.73
2023-02-09T04:32:15.396Z,9.70
2023-02-09T04:33:17.336Z,12.27
2023-02-09T04:34:21.375Z,10.38
2023-02-09T04:35:23.197Z,11.40
2023-02-09T04:36:25.065Z,12.27
2023-02-09T04:37:27.103Z,10.50
2023-02-09T04:38:29.073Z,11.57
2023-02-09T04:39:31.013Z,14.88
2023-02-09T04:40:32.906Z,10.07
2023-02-09T04:41:34.882Z,10.93
2023-02-09T04:42:37.072Z,11.43
2023-02-09T04:43:39.060Z,16.00
2023-02-09T04:44:41.306Z,9.13
2023-02-09T04:45:43.406Z,12.70
2023-02-09T04:46:45.824Z,13.25
2023-02-09T04:47:47.784Z,10.70
2023-02-09T04:48:49.737Z,13.52
2023-02-09T04:49:51.546Z,12.15
2023-02-09T04:50:54.224Z,12.75
2023-02-09T04:51:56.058Z,12.77
2023-02-09T04:52:57.977Z,12.20
2023-02-09T04:54:00.258Z,13.68
2023-02-09T04:55:02.379Z,11.63
2023-02-09T04:56:05.490Z,12.15
2023-02-09T04:57:26.404Z,10.45
2023-02-09T04:58:47.072Z,11.60
2023-02-09T04:59:48.929Z,13.00
2023-02-09T05:00:50.890Z,12.48
2023-02-09T05:01:52.705Z,9.75
2023-02-09T05:02:55.383Z,11.50
2023-02-09T05:03:57.390Z,11.13
2023-02-09T05:04:59.247Z,11.48
2023-02-09T05:06:05.638Z,10.38
2023-02-09T05:07:07.623Z,11.73
2023-02-09T05:08:09.573Z,11.32
2023-02-09T05:09:11.573Z,15.82
2023-02-09T05:10:13.587Z,9.10
2023-02-09T05:11:15.629Z,12.05
2023-02-09T05:12:17.502Z,10.98
2023-02-09T05:13:20.992Z,13.70
2023-02-09T05:14:22.948Z,10.63
2023-02-09T05:15:25.072Z,13.48
2023-02-09T05:16:27.035Z,13.30
2023-02-09T05:17:30.918Z,12.02
2023-02-09T05:18:32.837Z,9.30
2023-02-09T05:19:34.799Z,9.93
2023-02-09T05:20:37.183Z,10.00
2023-02-09T05:21:39.041Z,14.23
2023-02-09T05:22:40.854Z,10.60
2023-02-09T05:23:42.873Z,10.93
2023-02-09T05:24:44.793Z,12.27
2023-02-09T05:25:48.012Z,12.30
2023-02-09T05:26:50.009Z,12.60
2023-02-09T05:27:51.882Z,12.77
2023-02-09T05:28:53.708Z,13.55
2023-02-09T05:29:55.673Z,12.35
2023-02-09T05:30:57.861Z,12.80
2023-02-09T05:31:59.822Z,15.48
2023-02-09T05:33:03.223Z,13.82
2023-02-09T05:34:05.328Z,10.07
2023-02-09T05:35:08.476Z,12.43
2023-02-09T05:36:13.015Z,13.73
2023-02-09T05:37:14.844Z,12.25
2023-02-09T05:38:17.153Z,12.30
2023-02-09T05:39:19.014Z,15.18
2023-02-09T05:40:21.071Z,12.18
2023-02-09T05:41:43.226Z,14.13
2023-02-09T05:42:45.255Z,12.48
2023-02-09T05:43:47.137Z,13.43
2023-02-09T05:44:50.905Z,11.52
2023-02-09T05:45:52.766Z,13.25
2023-02-09T05:46:54.651Z,10.60
2023-02-09T05:47:56.746Z,12.85
2023-02-09T05:48:58.627Z,12.30
2023-02-09T05:50:00.528Z,15.00
2023-02-09T05:51:02.338Z,11.07
2023-02-09T05:52:04.787Z,12.45
2023-02-09T05:53:06.800Z,11.88
2023-02-09T05:54:08.888Z,12.15
2023-02-09T05:55:10.749Z,13.50
2023-02-09T05:56:12.554Z,12.98
2023-02-09T05:57:15.761Z,13.27
2023-02-09T05:58:17.543Z,12.18
2023-02-09T05:59:19.865Z,14.23
2023-02-09T06:00:22.119Z,13.55
2023-02-09T06:01:24.080Z,15.30
2023-02-09T06:02:26.241Z,15.57
2023-02-09T06:03:28.408Z,17.52
2023-02-09T06:04:30.512Z,13.80
2023-02-09T06:05:33.069Z,14.38
2023-02-09T06:06:35.460Z,14.20
2023-02-09T06:07:37.258Z,14.77
2023-02-09T06:08:39.114Z,13.23
2023-02-09T06:09:41.170Z,15.40
2023-02-09T06:10:43.201Z,13.45
2023-02-09T06:11:45.440Z,13.23
2023-02-09T06:12:47.623Z,13.43
2023-02-09T06:13:49.852Z,12.88
2023-02-09T06:14:51.758Z,16.80
2023-02-09T06:15:53.612Z,17.45
2023-02-09T06:16:55.488Z,15.07
2023-02-09T06:17:57.346Z,12.68
2023-02-09T06:18:59.204Z,19.85
2023-02-09T06:20:01.000Z,16.70
2023-02-09T06:21:02.811Z,13.02
2023-02-09T06:22:04.671Z,15.60
2023-02-09T06:23:06.633Z,15.65
2023-02-09T06:24:08.534Z,11.73
2023-02-09T06:25:10.436Z,12.98
2023-02-09T06:26:15.324Z,14.43
2023-02-09T06:27:17.142Z,19.33
2023-02-09T06:28:22.317Z,16.75
2023-02-09T06:29:25.240Z,16.85
2023-02-09T06:30:27.548Z,17.02
2023-02-09T06:31:29.681Z,19.77
2023-02-09T06:32:31.655Z,18.92
2023-02-09T06:33:35.033Z,13.45
2023-02-09T06:34:37.157Z,15.50
2023-02-09T06:35:38.994Z,14.85
2023-02-09T06:36:41.016Z,17.38
2023-02-09T06:37:42.800Z,16.88
2023-02-09T06:38:44.658Z,15.32
2023-02-09T06:39:46.497Z,15.35
2023-02-09T06:40:48.390Z,19.00
2023-02-09T06:41:50.257Z,17.95
2023-02-09T06:42:52.174Z,15.05
2023-02-09T06:43:54.194Z,13.27
2023-02-09T06:44:59.529Z,17.67
2023-02-09T06:46:12.852Z,13.93
2023-02-09T06:47:14.930Z,15.00
2023-02-09T06:48:16.730Z,14.20
2023-02-09T06:49:19.181Z,12.38
2023-02-09T06:50:21.390Z,14.18
2023-02-09T06:51:24.671Z,15.68
2023-02-09T06:52:26.596Z,14.10
2023-02-09T06:53:28.510Z,18.50
2023-02-09T06:54:30.388Z,16.65
2023-02-09T06:55:33.112Z,12.45
2023-02-09T06:56:34.916Z,16.27
2023-02-09T06:57:36.976Z,16.50
2023-02-09T06:58:40.030Z,16.77
2023-02-09T06:59:41.843Z,13.88
2023-02-09T07:00:43.848Z,12.88
2023-02-09T07:01:45.940Z,14.30
2023-02-09T07:02:48.089Z,13.30
2023-02-09T07:03:49.867Z,13.55
2023-02-09T07:04:51.861Z,14.77
2023-02-09T07:05:53.899Z,11.75
2023-02-09T07:06:55.828Z,13.07
2023-02-09T07:07:57.849Z,11.50
2023-02-09T07:08:59.686Z,13.00
2023-02-09T07:10:01.506Z,13.00
2023-02-09T07:11:05.839Z,14.88
2023-02-09T07:13:09.612Z,14.15
2023-02-09T07:14:11.425Z,12.13
2023-02-09T07:15:14.357Z,11.70
2023-02-09T07:16:16.953Z,15.02
2023-02-09T07:17:18.963Z,13.13
2023-02-09T07:18:20.744Z,15.38
2023-02-09T07:19:22.743Z,16.60
2023-02-09T07:20:24.590Z,15.38
2023-02-09T07:21:26.367Z,15.88
2023-02-09T07:22:28.593Z,15.82
2023-02-09T07:23:30.489Z,11.90
2023-02-09T07:24:32.467Z,13.50
2023-02-09T07:25:34.277Z,13.50
2023-02-09T07:26:36.156Z,12.13
2023-02-09T07:27:38.153Z,11.85
2023-02-09T07:28:39.955Z,14.77
2023-02-09T07:29:41.961Z,12.65
2023-02-09T07:30:44.147Z,12.25
2023-02-09T07:31:46.244Z,12.45
2023-02-09T07:32:48.163Z,16.10
2023-02-09T07:33:50.061Z,13.23
2023-02-09T07:34:51.855Z,9.88
2023-02-09T07:35:53.725Z,11.80
2023-02-09T07:36:55.873Z,15.30
2023-02-09T07:37:57.814Z,12.85
2023-02-09T07:38:59.918Z,14.20
2023-02-09T07:40:02.240Z,11.85
2023-02-09T07:41:06.958Z,12.10
2023-02-09T07:42:08.757Z,12.50
2023-02-09T07:43:10.684Z,16.85
2023-02-09T07:44:12.621Z,10.25
2023-02-09T07:45:14.505Z,11.48
2023-02-09T07:46:18.339Z,11.70
2023-02-09T07:47:20.441Z,12.80
2023-02-09T07:48:23.240Z,12.43
2023-02-09T07:49:25.093Z,13.23
2023-02-09T07:50:27.129Z,12.02
2023-02-09T07:51:29.520Z,14.63
2023-02-09T07:52:31.355Z,13.50
2023-02-09T07:53:33.820Z,11.23
2023-02-09T07:54:35.759Z,12.05
2023-02-09T07:55:40.564Z,12.40
2023-02-09T07:56:42.832Z,9.27
2023-02-09T07:57:44.713Z,11.90
2023-02-09T07:58:46.668Z,14.40
2023-02-09T07:59:48.569Z,13.15
2023-02-09T08:00:51.768Z,13.13
2023-02-09T08:01:53.663Z,11.23
2023-02-09T08:02:55.692Z,11.75
2023-02-09T08:03:57.500Z,14.18
2023-02-09T08:05:01.111Z,12.73
2023-02-09T08:06:12.509Z,13.02
2023-02-09T08:07:14.283Z,12.70
2023-02-09T08:08:16.191Z,14.25
2023-02-09T08:09:18.362Z,14.82
2023-02-09T08:10:20.578Z,12.05
2023-02-09T08:11:29.476Z,11.30
2023-02-09T08:12:51.094Z,12.95
2023-02-09T08:13:55.945Z,10.65
2023-02-09T08:14:57.843Z,12.55
2023-02-09T08:16:06.312Z,13.00
2023-02-09T08:17:24.472Z,10.65
2023-02-09T08:18:32.518Z,14.55
2023-02-09T08:19:34.420Z,13.75
2023-02-09T08:20:36.224Z,15.23
2023-02-09T08:21:41.707Z,12.25
2023-02-09T08:22:47.064Z,12.90
2023-02-09T08:23:54.546Z,12.25
2023-02-09T08:24:58.088Z,14.98
2023-02-09T08:26:03.140Z,12.23
2023-02-09T08:27:04.960Z,12.00
2023-02-09T08:28:07.723Z,10.60
2023-02-09T08:29:11.611Z,12.23
2023-02-09T08:30:15.631Z,12.75
2023-02-09T08:31:19.732Z,13.60
2023-02-09T08:32:21.740Z,12.68
2023-02-09T08:33:23.929Z,14.93
2023-02-09T08:34:25.764Z,18.17
2023-02-09T08:35:30.297Z,14.15
2023-02-09T08:36:34.568Z,15.48
2023-02-09T08:37:36.484Z,14.55
2023-02-09T08:38:38.480Z,14.43
2023-02-09T08:39:40.379Z,13.32
2023-02-09T08:40:44.399Z,14.38
2023-02-09T08:41:46.554Z,15.80
2023-02-09T08:42:48.362Z,15.88
2023-02-09T08:43:51.804Z,14.73
2023-02-09T08:44:53.565Z,12.95
2023-02-09T08:45:55.653Z,25.60
2023-02-09T08:46:57.906Z,14.23
2023-02-09T08:47:59.858Z,16.85
2023-02-09T08:49:01.678Z,14.90
2023-02-09T08:50:04.108Z,16.25
2023-02-09T08:51:07.474Z,13.75
2023-02-09T08:52:09.542Z,15.18
2023-02-09T08:53:11.547Z,14.23
2023-02-09T08:54:13.487Z,15.70
2023-02-09T08:55:15.428Z,19.50
2023-02-09T08:56:18.592Z,17.23
2023-02-09T08:57:20.574Z,16.23
2023-02-09T08:58:22.664Z,14.65
2023-02-09T08:59:24.540Z,16.90
2023-02-09T09:00:27.429Z,12.90
2023-02-09T09:01:29.281Z,13.55
2023-02-09T09:02:31.292Z,14.77
2023-02-09T09:03:33.527Z,17.98
2023-02-09T09:04:35.417Z,16.52
2023-02-09T09:05:37.683Z,16.38
2023-02-09T09:06:39.573Z,16.63
2023-02-09T09:07:41.593Z,15.93
2023-02-09T09:08:43.890Z,21.58
2023-02-09T09:09:46.050Z,18.52
2023-02-09T09:10:47.986Z,16.73
2023-02-09T09:11:49.982Z,19.05
2023-02-09T09:12:52.167Z,17.00
2023-02-09T09:13:53.970Z,17.00
2023-02-09T09:14:56.935Z,17.42
2023-02-09T09:15:59.080Z,17.90
2023-02-09T09:17:01.410Z,13.93
2023-02-09T09:18:03.276Z,16.42
2023-02-09T09:19:05.537Z,18.13
2023-02-09T09:20:08.465Z,17.17
2023-02-09T09:21:12.386Z,16.38
2023-02-09T09:22:14.448Z,13.88
2023-02-09T09:23:16.509Z,16.77
2023-02-09T09:24:18.330Z,15.55
2023-02-09T09:25:20.145Z,17.10
2023-02-09T09:26:22.110Z,13.27
2023-02-09T09:27:26.104Z,14.85
2023-02-09T09:28:29.622Z,20.98
2023-02-09T09:29:34.295Z,15.27
2023-02-09T09:30:36.956Z,14.43
2023-02-09T09:31:39.142Z,13.63
2023-02-09T09:32:41.264Z,10.77
2023-02-09T09:33:44.319Z,7.22
2023-02-09T09:34:46.203Z,6.07
2023-02-09T09:35:48.394Z,5.97
2023-02-09T09:36:50.416Z,9.30
2023-02-09T09:37:53.219Z,6.88
2023-02-09T09:38:56.574Z,6.63
2023-02-09T09:39:59.483Z,4.93
2023-02-09T09:41:01.650Z,6.20
2023-02-09T09:42:06.400Z,4.50
2023-02-09T09:43:21.001Z,5.70
2023-02-09T09:44:33.537Z,5.63
2023-02-09T09:45:38.804Z,5.20
2023-02-09T09:46:46.292Z,5.35
2023-02-09T09:47:48.614Z,4.13
2023-02-09T09:48:54.163Z,5.70
2023-02-09T09:49:56.501Z,4.38
2023-02-09T09:51:02.553Z,4.25
2023-02-09T09:52:30.290Z,3.88
2023-02-09T09:53:37.180Z,4.03
2023-02-09T09:54:41.215Z,4.88
2023-02-09T09:55:45.267Z,6.38
2023-02-09T09:56:47.602Z,4.70
2023-02-09T09:57:50.823Z,4.82
2023-02-09T09:58:52.896Z,4.88
2023-02-09T09:59:56.309Z,5.00
2023-02-09T10:00:58.299Z,10.52
2023-02-09T10:02:03.958Z,5.20
2023-02-09T10:03:17.799Z,5.57
2023-02-09T10:04:21.166Z,5.78
2023-02-09T10:05:26.370Z,5.70
2023-02-09T10:06:34.288Z,2.95
2023-02-09T10:07:38.922Z,5.18
2023-02-09T10:08:51.153Z,3.63
2023-02-09T10:09:59.258Z,5.65
2023-02-09T10:11:06.107Z,4.10
2023-02-09T10:12:26.825Z,3.22
2023-02-09T10:13:53.357Z,4.30
2023-02-09T10:14:55.172Z,5.07
2023-02-09T10:15:58.411Z,3.00
2023-02-09T10:17:00.374Z,4.07
2023-02-09T10:18:03.052Z,2.92
2023-02-09T10:19:30.501Z,2.70
2023-02-09T10:20:43.292Z,3.10
2023-02-09T10:21:45.422Z,3.50
2023-02-09T10:22:51.705Z,4.30
2023-02-09T10:24:02.444Z,4.82
2023-02-09T10:25:37.980Z,4.03
2023-02-09T10:26:41.820Z,2.85
2023-02-09T10:27:46.698Z,5.30
2023-02-09T10:28:52.698Z,5.63
2023-02-09T10:29:54.970Z,4.72
2023-02-09T10:31:00.078Z,3.97
2023-02-09T10:32:39.970Z,5.40
2023-02-09T10:33:44.489Z,4.03
2023-02-09T10:34:50.105Z,6.32
2023-02-09T10:35:56.752Z,4.97
2023-02-09T10:37:04.578Z,8.10
2023-02-09T10:38:17.154Z,4.95
2023-02-09T10:39:22.951Z,4.47
2023-02-09T10:40:28.503Z,6.20
2023-02-09T10:41:34.548Z,6.65
2023-02-09T10:42:39.718Z,6.10
2023-02-09T10:43:41.932Z,5.50
2023-02-09T10:44:48.717Z,3.78
2023-02-09T10:46:18.128Z,6.38
2023-02-09T10:47:20.005Z,4.85
2023-02-09T10:48:23.752Z,5.82
2023-02-09T10:49:36.212Z,4.95
2023-02-09T10:51:00.436Z,6.68
2023-02-09T10:52:22.834Z,6.53
2023-02-09T10:53:32.048Z,6.22
2023-02-09T10:54:33.963Z,7.50
2023-02-09T10:55:40.010Z,7.97
2023-02-09T10:56:41.825Z,5.97
2023-02-09T10:57:43.760Z,8.85
2023-02-09T10:59:00.628Z,7.18
2023-02-09T11:01:28.152Z,7.47
2023-02-09T11:02:33.306Z,8.55
2023-02-09T11:03:37.171Z,8.85
2023-02-09T11:04:41.187Z,7.57
2023-02-09T11:05:45.872Z,11.52
2023-02-09T11:06:55.363Z,11.20
2023-02-09T11:08:15.567Z,9.82
2023-02-09T11:09:20.181Z,9.20
2023-02-09T11:10:23.205Z,10.82
2023-02-09T11:11:36.831Z,12.18
2023-02-09T11:12:38.693Z,10.38
2023-02-09T11:13:42.580Z,10.75
2023-02-09T11:14:44.613Z,9.65
2023-02-09T11:16:32.147Z,7.22
2023-02-09T11:17:40.205Z,10.23
2023-02-09T11:18:47.482Z,10.07
2023-02-09T11:20:04.227Z,7.80
2023-02-09T11:21:44.929Z,9.52
2023-02-09T11:23:11.878Z,8.35
2023-02-09T11:24:13.829Z,12.07
2023-02-09T11:25:29.233Z,10.23
2023-02-09T11:26:48.924Z,12.20
2023-02-09T11:28:09.635Z,11.48
2023-02-09T11:29:27.922Z,10.05
2023-02-09T11:31:02.192Z,9.68
2023-02-09T11:32:25.791Z,10.90
2023-02-09T11:33:52.199Z,11.88
2023-02-09T11:35:01.195Z,10.52
2023-02-09T11:36:21.173Z,10.43
2023-02-09T11:37:44.581Z,12.90
2023-02-09T11:38:46.493Z,8.20
2023-02-09T11:40:05.831Z,9.88
2023-02-09T11:41:34.460Z,11.73
2023-02-09T11:42:46.813Z,8.30
2023-02-09T11:43:51.190Z,8.18
2023-02-09T11:45:14.579Z,7.85
2023-02-09T11:46:22.377Z,7.05
2023-02-09T11:47:31.185Z,4.97
2023-02-09T11:48:43.519Z,6.10
2023-02-09T11:49:52.657Z,4.70
2023-02-09T11:51:13.083Z,6.70
2023-02-09T11:52:30.080Z,5.53
2023-02-09T11:54:03.973Z,4.97
2023-02-09T11:55:40.508Z,6.85
2023-02-09T11:56:48.182Z,5.18
2023-02-09T11:57:57.348Z,9.98
2023-02-09T11:59:10.541Z,8.48
2023-02-09T12:00:22.152Z,4.88
2023-02-09T12:01:50.624Z,6.10
2023-02-09T12:03:10.982Z,5.07
2023-02-09T12:04:18.606Z,6.68
2023-02-09T12:05:22.682Z,6.80
2023-02-09T12:06:25.662Z,6.50
2023-02-09T12:07:52.482Z,6.57
2023-02-09T12:09:20.158Z,5.68
2023-02-09T12:11:04.278Z,10.48
2023-02-09T12:12:37.523Z,8.60
2023-02-09T12:13:58.338Z,5.93
2023-02-09T12:15:14.693Z,8.98
2023-02-09T12:16:22.577Z,7.63
2023-02-09T12:17:30.284Z,5.47
2023-02-09T12:18:35.139Z,11.77
2023-02-09T12:19:41.122Z,7.15
2023-02-09T12:20:52.347Z,9.63
2023-02-09T12:21:54.332Z,9.05
2023-02-09T12:22:58.565Z,11.20
2023-02-09T12:25:12.111Z,8.30
2023-02-09T12:26:18.022Z,7.05
2023-02-09T12:27:26.128Z,7.55
2023-02-09T12:28:28.084Z,8.05
2023-02-09T12:29:41.800Z,8.70
2023-02-09T12:30:43.760Z,5.20
2023-02-09T12:32:04.255Z,5.97
2023-02-09T12:33:24.196Z,9.75
2023-02-09T12:34:52.372Z,6.65
2023-02-09T12:36:25.008Z,8.98
2023-02-09T12:37:29.392Z,7.35
2023-02-09T12:38:53.565Z,11.20
2023-02-09T12:40:06.480Z,8.55
2023-02-09T12:41:09.727Z,9.38
2023-02-09T12:42:11.529Z,7.25
2023-02-09T12:43:28.403Z,6.45
2023-02-09T12:45:40.059Z,9.70
2023-02-09T12:46:44.832Z,8.52
2023-02-09T12:47:58.931Z,7.45
2023-02-09T12:49:20.124Z,9.13
2023-02-09T12:50:55.362Z,8.77
2023-02-09T12:52:17.497Z,8.73
2023-02-09T12:53:22.448Z,8.85
2023-02-09T12:54:30.801Z,6.63
2023-02-09T12:55:33.239Z,7.57
2023-02-09T12:56:35.196Z,7.18
2023-02-09T12:57:51.956Z,7.47
2023-02-09T12:59:06.263Z,11.27
2023-02-09T13:00:31.860Z,7.47
2023-02-09T13:02:07.931Z,9.88
2023-02-09T13:03:13.210Z,8.18
2023-02-09T13:04:15.704Z,7.72
2023-02-09T13:05:39.468Z,11.60
2023-02-09T13:06:47.642Z,7.93
2023-02-09T13:08:11.463Z,14.82
2023-02-09T13:09:23.821Z,6.88
2023-02-09T13:10:32.675Z,8.88
2023-02-09T13:11:49.945Z,7.57
2023-02-09T13:13:03.567Z,11.85
2023-02-09T13:14:09.775Z,9.88
2023-02-09T13:15:17.433Z,10.68
2023-02-09T13:16:25.441Z,9.73
2023-02-09T13:17:38.244Z,6.57
2023-02-09T13:19:02.310Z,10.63
2023-02-09T13:20:37.908Z,10.18
2023-02-09T13:22:04.981Z,7.95
2023-02-09T13:23:23.288Z,7.70
2023-02-09T13:24:36.001Z,7.93
2023-02-09T13:25:39.961Z,11.15
2023-02-09T13:26:56.724Z,6.68
2023-02-09T13:28:20.559Z,7.60
2023-02-09T13:29:33.336Z,5.53
2023-02-09T13:30:35.409Z,8.65
2023-02-09T13:31:42.752Z,8.65
2023-02-09T13:32:56.278Z,9.57
2023-02-09T13:34:07.948Z,9.77
2023-02-09T13:35:28.427Z,9.40
2023-02-09T13:36:39.052Z,7.00
2023-02-09T13:38:45.342Z,13.88
2023-02-09T13:39:55.294Z,8.50
2023-02-09T13:40:58.515Z,10.57
2023-02-09T13:42:00.632Z,10.05
2023-02-09T13:43:11.556Z,8.48
2023-02-09T13:44:22.835Z,7.32
2023-02-09T13:45:26.938Z,8.43
2023-02-09T13:46:34.593Z,8.68
2023-02-09T13:47:42.920Z,8.50
2023-02-09T13:48:44.823Z,8.65
2023-02-09T13:50:21.430Z,8.93
2023-02-09T13:51:23.883Z,7.90
2023-02-09T13:52:26.933Z,8.32
2023-02-09T13:53:30.655Z,9.50
2023-02-09T13:54:32.644Z,8.45
2023-02-09T13:55:37.901Z,8.90
2023-02-09T13:56:40.801Z,9.65
2023-02-09T13:57:44.650Z,9.43
2023-02-09T13:58:47.919Z,9.70
2023-02-09T13:59:50.273Z,9.93
2023-02-09T14:00:59.057Z,8.45
2023-02-09T14:02:00.924Z,8.95
2023-02-09T14:03:12.533Z,6.32
2023-02-09T14:04:19.642Z,7.63
2023-02-09T14:05:45.276Z,7.25
2023-02-09T14:06:50.390Z,10.32
2023-02-09T14:07:53.311Z,7.30
2023-02-09T14:08:55.863Z,6.38
2023-02-09T14:10:12.954Z,9.45
2023-02-09T14:11:41.427Z,7.40
2023-02-09T14:12:52.488Z,6.28
2023-02-09T14:14:08.376Z,6.60
2023-02-09T14:15:31.891Z,6.18
2023-02-09T14:16:41.644Z,5.07
2023-02-09T14:17:56.012Z,3.70
2023-02-09T14:18:59.454Z,8.57
2023-02-09T14:20:03.825Z,7.78
2023-02-09T14:21:11.918Z,7.85
2023-02-09T14:22:30.526Z,6.72
2023-02-09T14:23:33.159Z,7.55
2023-02-09T14:24:43.937Z,5.30
2023-02-09T14:25:47.982Z,7.18
2023-02-09T14:26:54.389Z,7.35
2023-02-09T14:27:57.758Z,8.65
2023-02-09T14:29:02.580Z,4.90
2023-02-09T14:30:12.752Z,9.48
2023-02-09T14:31:23.781Z,7.70
2023-02-09T14:32:36.587Z,5.68
2023-02-09T14:33:38.510Z,8.57
2023-02-09T14:34:40.825Z,10.35
2023-02-09T14:35:42.791Z,8.82
2023-02-09T14:36:55.229Z,7.25
2023-02-09T14:38:01.774Z,9.68
2023-02-09T14:39:12.725Z,10.90
2023-02-09T14:40:14.768Z,8.93
2023-02-09T14:41:31.751Z,10.27
2023-02-09T14:42:39.552Z,7.57
2023-02-09T14:43:41.569Z,10.00
2023-02-09T14:44:55.044Z,8.50
2023-02-09T14:46:01.650Z,10.30
2023-02-09T14:47:03.714Z,9.13